createdAt,value
2017-04-20T00:00:37.285Z,21.47
2017-04-20T00:01:37.620Z,21.43
2017-04-20T00:02:37.962Z,21.43
2017-04-20T00:03:37.668Z,21.46
2017-04-20T00:04:37.707Z,21.43
2017-04-20T00:05:37.731Z,21.35
2017-04-20T00:06:37.760Z,21.34
2017-04-20T00:07:37.786Z,21.35
2017-04-20T00:08:37.810Z,21.37
2017-04-20T00:09:38.402Z,21.37
2017-04-20T00:10:37.872Z,21.34
2017-04-20T00:11:38.204Z,21.4
2017-04-20T00:12:38.238Z,21.37
2017-04-20T00:13:38.259Z,21.42
2017-04-20T00:14:38.648Z,21.27
2017-04-20T00:15:37.995Z,21.31
2017-04-20T00:16:38.337Z,21.31
2017-04-20T00:17:38.363Z,21.31
2017-04-20T00:18:38.390Z,21.31
2017-04-20T00:19:38.663Z,21.22
2017-04-20T00:20:38.131Z,21.35
2017-04-20T00:21:38.465Z,21.32
2017-04-20T00:22:38.489Z,21.34
2017-04-20T00:23:38.210Z,21.25
2017-04-20T00:24:38.478Z,21.28
2017-04-20T00:25:38.567Z,21.25
2017-04-20T00:26:38.600Z,21.32
2017-04-20T00:27:38.621Z,21.24
2017-04-20T00:28:38.653Z,21.29
2017-04-20T00:29:38.927Z,21.29
2017-04-20T00:30:38.702Z,21.25
2017-04-20T00:31:38.722Z,21.29
2017-04-20T00:32:38.437Z,21.28
2017-04-20T00:33:38.785Z,21.21
2017-04-20T00:34:39.059Z,21.22
2017-04-20T00:35:38.514Z,21.22
2017-04-20T00:36:38.859Z,21.14
2017-04-20T00:37:38.568Z,21.17
2017-04-20T00:38:38.908Z,21.19
2017-04-20T00:39:38.878Z,21.19
2017-04-20T00:40:38.334Z,21.17
2017-04-20T00:41:38.999Z,21.13
2017-04-20T00:42:39.014Z,21.22
2017-04-20T00:43:39.040Z,21.16
2017-04-20T00:44:39.329Z,21.12
2017-04-20T00:45:39.098Z,21.17
2017-04-20T00:46:39.118Z,21.12
2017-04-20T00:47:39.142Z,21.1
2017-04-20T00:48:39.176Z,21.12
2017-04-20T00:49:39.128Z,21.12
2017-04-20T00:50:39.233Z,21.07
2017-04-20T00:51:38.938Z,21.06
2017-04-20T00:52:39.279Z,21.09
2017-04-20T00:53:38.987Z,21.09
2017-04-20T00:54:39.580Z,21.06
2017-04-20T00:55:39.351Z,21.03
2017-04-20T00:56:38.758Z,21.04
2017-04-20T00:57:39.406Z,20.98
2017-04-20T00:58:39.440Z,21.03
2017-04-20T00:59:39.717Z,21.06
2017-04-20T01:00:38.856Z,21.06
2017-04-20T01:01:39.518Z,21.06
2017-04-20T01:02:39.540Z,21.01
2017-04-20T01:03:39.252Z,20.99
2017-04-20T01:04:39.842Z,21.09
2017-04-20T01:05:39.621Z,21.06
2017-04-20T01:06:39.329Z,20.94
2017-04-20T01:07:39.666Z,21.06
2017-04-20T01:08:39.447Z,20.99
2017-04-20T01:09:39.739Z,20.98
2017-04-20T01:10:39.744Z,20.95
2017-04-20T01:11:39.458Z,20.97
2017-04-20T01:12:39.801Z,20.97
2017-04-20T01:13:39.831Z,20.98
2017-04-20T01:14:39.855Z,20.91
2017-04-20T01:15:39.876Z,20.92
2017-04-20T01:16:39.905Z,20.92
2017-04-20T01:17:39.933Z,20.98
2017-04-20T01:18:39.950Z,20.95
2017-04-20T01:19:39.983Z,20.99
2017-04-20T01:20:39.692Z,20.91
2017-04-20T01:21:39.413Z,20.85
2017-04-20T01:22:39.733Z,20.99
2017-04-20T01:23:40.086Z,21.01
2017-04-20T01:24:39.795Z,20.92
2017-04-20T01:25:40.139Z,20.95
2017-04-20T01:26:40.169Z,20.97
2017-04-20T01:27:40.233Z,20.92
2017-04-20T01:28:39.590Z,20.99
2017-04-20T01:29:39.928Z,20.85
2017-04-20T01:30:39.956Z,20.88
2017-04-20T01:31:39.981Z,20.85
2017-04-20T01:32:40.014Z,20.82
2017-04-20T01:33:40.345Z,20.87
2017-04-20T01:34:40.371Z,20.92
2017-04-20T01:35:40.092Z,20.87
2017-04-20T01:36:40.425Z,20.87
2017-04-20T01:37:40.137Z,20.8
2017-04-20T01:38:40.160Z,20.89
2017-04-20T01:39:40.502Z,20.88
2017-04-20T01:40:40.214Z,20.87
2017-04-20T01:41:40.559Z,20.88
2017-04-20T01:42:40.268Z,20.76
2017-04-20T01:43:40.297Z,20.82
2017-04-20T01:44:40.629Z,20.8
2017-04-20T01:45:40.667Z,20.85
2017-04-20T01:46:40.688Z,20.77
2017-04-20T01:47:40.726Z,20.73
2017-04-20T01:48:40.429Z,20.72
2017-04-20T01:49:40.758Z,20.8
2017-04-20T01:50:40.166Z,20.77
2017-04-20T01:51:40.820Z,20.77
2017-04-20T01:52:40.537Z,20.73
2017-04-20T01:53:41.095Z,20.67
2017-04-20T01:54:40.795Z,20.7
2017-04-20T01:55:41.366Z,20.69
2017-04-20T01:56:55.648Z,20.76
2017-04-20T01:57:41.204Z,20.7
2017-04-20T01:59:41.246Z,20.62
2017-04-20T02:00:41.072Z,20.77
2017-04-20T02:01:41.580Z,20.73
2017-04-20T02:02:41.104Z,20.74
2017-04-20T02:03:41.586Z,20.67
2017-04-20T02:04:41.146Z,20.64
2017-04-20T02:05:41.193Z,20.69
2017-04-20T02:06:41.206Z,20.59
2017-04-20T02:07:41.241Z,20.7
2017-04-20T02:08:41.258Z,20.66
2017-04-20T02:09:41.285Z,20.7
2017-04-20T02:10:41.297Z,20.61
2017-04-20T02:11:41.333Z,20.69
2017-04-20T02:12:41.051Z,20.61
2017-04-20T02:13:41.388Z,20.76
2017-04-20T02:14:40.785Z,20.66
2017-04-20T02:15:41.373Z,20.61
2017-04-20T02:16:41.466Z,20.59
2017-04-20T02:17:41.520Z,20.61
2017-04-20T02:18:41.514Z,20.64
2017-04-20T02:19:41.230Z,20.64
2017-04-20T02:20:41.572Z,20.66
2017-04-20T02:21:41.614Z,20.61
2017-04-20T02:22:41.615Z,20.72
2017-04-20T02:23:41.652Z,20.67
2017-04-20T02:24:41.361Z,20.62
2017-04-20T02:25:41.957Z,20.69
2017-04-20T02:26:41.723Z,20.61
2017-04-20T02:27:41.434Z,20.66
2017-04-20T02:28:41.793Z,20.67
2017-04-20T02:29:41.801Z,20.61
2017-04-20T02:30:41.769Z,20.59
2017-04-20T02:31:41.858Z,20.58
2017-04-20T02:32:41.879Z,20.57
2017-04-20T02:33:41.908Z,20.54
2017-04-20T02:34:41.921Z,20.57
2017-04-20T02:35:41.893Z,20.62
2017-04-20T02:36:41.977Z,20.58
2017-04-20T02:37:42.003Z,20.57
2017-04-20T02:38:41.979Z,20.55
2017-04-20T02:39:42.059Z,20.5
2017-04-20T02:40:42.019Z,20.59
2017-04-20T02:41:42.104Z,20.57
2017-04-20T02:42:42.133Z,20.51
2017-04-20T02:43:42.157Z,20.42
2017-04-20T02:44:42.182Z,20.47
2017-04-20T02:45:42.152Z,20.48
2017-04-20T02:46:42.236Z,20.5
2017-04-20T02:47:42.266Z,20.54
2017-04-20T02:48:42.290Z,20.47
2017-04-20T02:49:42.007Z,20.42
2017-04-20T02:50:42.587Z,20.54
2017-04-20T02:51:42.393Z,20.48
2017-04-20T02:52:42.394Z,20.47
2017-04-20T02:53:42.417Z,20.48
2017-04-20T02:54:42.442Z,20.51
2017-04-20T02:55:42.851Z,20.52
2017-04-20T02:56:42.179Z,20.52
2017-04-20T02:57:42.522Z,20.43
2017-04-20T02:58:42.545Z,20.42
2017-04-20T02:59:42.266Z,20.41
2017-04-20T03:00:42.537Z,20.41
2017-04-20T03:01:42.616Z,20.42
2017-04-20T03:02:42.661Z,20.41
2017-04-20T03:03:42.046Z,20.41
2017-04-20T03:04:42.702Z,20.36
2017-04-20T03:05:42.986Z,20.41
2017-04-20T03:06:42.747Z,20.38
2017-04-20T03:07:42.148Z,20.41
2017-04-20T03:08:42.810Z,20.35
2017-04-20T03:09:42.522Z,20.36
2017-04-20T03:10:42.855Z,20.38
2017-04-20T03:11:42.572Z,20.39
2017-04-20T03:12:42.909Z,20.33
2017-04-20T03:13:42.958Z,20.39
2017-04-20T03:14:42.642Z,20.36
2017-04-20T03:15:42.990Z,20.31
2017-04-20T03:16:42.695Z,20.26
2017-04-20T03:17:43.041Z,20.35
2017-04-20T03:18:43.057Z,20.33
2017-04-20T03:19:43.081Z,20.36
2017-04-20T03:20:42.790Z,20.36
2017-04-20T03:21:43.135Z,20.29
2017-04-20T03:22:43.160Z,20.32
2017-04-20T03:23:43.188Z,20.29
2017-04-20T03:24:42.893Z,20.31
2017-04-20T03:25:43.242Z,20.35
2017-04-20T03:26:42.943Z,20.26
2017-04-20T03:27:43.292Z,20.28
2017-04-20T03:28:43.004Z,20.28
2017-04-20T03:29:43.027Z,20.31
2017-04-20T03:30:43.367Z,20.29
2017-04-20T03:31:43.082Z,20.24
2017-04-20T03:32:43.102Z,20.36
2017-04-20T03:33:43.448Z,20.31
2017-04-20T03:34:43.151Z,20.31
2017-04-20T03:35:43.488Z,20.28
2017-04-20T03:36:43.514Z,20.28
2017-04-20T03:37:43.542Z,20.24
2017-04-20T03:38:43.574Z,20.2
2017-04-20T03:39:43.596Z,20.26
2017-04-20T03:40:43.314Z,20.26
2017-04-20T03:41:43.334Z,20.28
2017-04-20T03:42:43.679Z,20.24
2017-04-20T03:43:43.387Z,20.2
2017-04-20T03:44:43.415Z,20.2
2017-04-20T03:45:43.443Z,20.21
2017-04-20T03:46:43.773Z,20.21
2017-04-20T03:47:43.493Z,20.21
2017-04-20T03:48:43.531Z,20.17
2017-04-20T03:49:43.860Z,20.2
2017-04-20T03:50:43.879Z,20.17
2017-04-20T03:51:43.905Z,20.18
2017-04-20T03:52:43.610Z,20.21
2017-04-20T03:53:43.642Z,20.17
2017-04-20T03:54:43.678Z,20.16
2017-04-20T03:55:44.023Z,20.21
2017-04-20T03:56:43.977Z,20.24
2017-04-20T03:57:43.745Z,20.16
2017-04-20T03:58:44.092Z,20.24
2017-04-20T03:59:44.107Z,20.23
2017-04-20T04:00:44.136Z,20.2
2017-04-20T04:01:44.098Z,20.18
2017-04-20T04:02:43.878Z,20.17
2017-04-20T04:03:44.234Z,20.17
2017-04-20T04:04:44.231Z,20.18
2017-04-20T04:05:43.639Z,20.16
2017-04-20T04:06:44.536Z,20.14
2017-04-20T04:07:43.692Z,20.2
2017-04-20T04:08:43.721Z,20.13
2017-04-20T04:09:44.367Z,20.14
2017-04-20T04:10:44.388Z,20.16
2017-04-20T04:11:44.659Z,20.11
2017-04-20T04:12:44.425Z,20.18
2017-04-20T04:13:44.466Z,20.01
2017-04-20T04:14:44.490Z,20.13
2017-04-20T04:15:44.511Z,20.11
2017-04-20T04:16:44.479Z,20.11
2017-04-20T04:17:44.564Z,20.14
2017-04-20T04:18:44.593Z,20.03
2017-04-20T04:19:44.614Z,20.16
2017-04-20T04:20:44.336Z,20.05
2017-04-20T04:21:44.296Z,20.14
2017-04-20T04:22:44.689Z,20.1
2017-04-20T04:23:44.426Z,20.13
2017-04-20T04:24:44.745Z,20.14
2017-04-20T04:25:44.454Z,20.16
2017-04-20T04:26:44.731Z,20.13
2017-04-20T04:27:44.821Z,20.21
2017-04-20T04:28:44.538Z,20.26
2017-04-20T04:29:45.013Z,20.23
2017-04-20T04:30:44.903Z,20.18
2017-04-20T04:31:44.871Z,20.24
2017-04-20T04:32:44.953Z,20.33
2017-04-20T04:33:44.978Z,20.32
2017-04-20T04:34:44.686Z,20.33
2017-04-20T04:35:45.031Z,20.36
2017-04-20T04:36:45.310Z,20.32
2017-04-20T04:37:45.081Z,20.35
2017-04-20T04:38:45.153Z,20.41
2017-04-20T04:39:45.129Z,20.52
2017-04-20T04:40:45.154Z,20.52
2017-04-20T04:41:45.127Z,20.48
2017-04-20T04:42:44.896Z,20.5
2017-04-20T04:43:45.232Z,20.55
2017-04-20T04:44:44.941Z,20.62
2017-04-20T04:45:45.282Z,20.57
2017-04-20T04:46:45.250Z,20.57
2017-04-20T04:47:45.020Z,20.64
2017-04-20T04:48:45.359Z,20.62
2017-04-20T04:49:45.384Z,20.74
2017-04-20T04:50:45.413Z,20.73
2017-04-20T04:51:45.685Z,20.72
2017-04-20T04:52:45.463Z,20.69
2017-04-20T04:53:45.168Z,20.64
2017-04-20T04:54:45.516Z,20.72
2017-04-20T04:55:45.238Z,20.73
2017-04-20T04:56:45.509Z,20.77
2017-04-20T04:57:45.591Z,20.72
2017-04-20T04:58:45.608Z,20.73
2017-04-20T04:59:45.640Z,20.76
2017-04-20T05:00:45.670Z,20.76
2017-04-20T05:01:45.638Z,20.85
2017-04-20T05:02:45.407Z,20.91
2017-04-20T05:03:45.431Z,20.88
2017-04-20T05:04:45.143Z,20.88
2017-04-20T05:05:45.169Z,20.88
2017-04-20T05:06:46.066Z,20.88
2017-04-20T05:07:45.846Z,20.91
2017-04-20T05:08:45.871Z,20.91
2017-04-20T05:09:45.900Z,20.87
2017-04-20T05:10:45.920Z,20.87
2017-04-20T05:11:46.200Z,20.88
2017-04-20T05:12:45.973Z,20.85
2017-04-20T05:13:45.993Z,20.82
2017-04-20T05:14:45.721Z,20.97
2017-04-20T05:15:46.040Z,20.95
2017-04-20T05:16:46.321Z,20.97
2017-04-20T05:17:46.101Z,20.97
2017-04-20T05:18:46.128Z,20.99
2017-04-20T05:19:46.155Z,20.95
2017-04-20T05:20:46.184Z,20.97
2017-04-20T05:21:45.901Z,20.95
2017-04-20T05:22:45.923Z,20.97
2017-04-20T05:23:45.946Z,20.92
2017-04-20T05:24:46.279Z,21.06
2017-04-20T05:25:45.996Z,21.06
2017-04-20T05:26:46.025Z,21.09
2017-04-20T05:27:46.362Z,21.01
2017-04-20T05:28:46.069Z,21.03
2017-04-20T05:29:46.410Z,21.03
2017-04-20T05:30:45.812Z,21.03
2017-04-20T05:31:46.484Z,21.14
2017-04-20T05:32:46.168Z,21.13
2017-04-20T05:33:46.198Z,21.09
2017-04-20T05:34:46.222Z,21.06
2017-04-20T05:35:46.564Z,21.13
2017-04-20T05:36:46.280Z,21.13
2017-04-20T05:37:46.612Z,21.13
2017-04-20T05:38:46.331Z,21.21
2017-04-20T05:39:46.687Z,21.12
2017-04-20T05:40:46.700Z,21.21
2017-04-20T05:41:46.409Z,21.21
2017-04-20T05:42:46.434Z,21.17
2017-04-20T05:43:46.765Z,21.22
2017-04-20T05:44:46.795Z,21.16
2017-04-20T05:45:46.819Z,21.16
2017-04-20T05:46:46.844Z,21.31
2017-04-20T05:47:46.869Z,21.25
2017-04-20T05:48:46.589Z,21.25
2017-04-20T05:49:46.928Z,21.32
2017-04-20T05:50:46.644Z,21.35
2017-04-20T05:51:46.971Z,21.34
2017-04-20T05:52:47.252Z,21.31
2017-04-20T05:53:46.709Z,21.31
2017-04-20T05:54:47.049Z,21.43
2017-04-20T05:55:47.082Z,21.43
2017-04-20T05:56:47.108Z,21.38
2017-04-20T05:57:47.376Z,21.42
2017-04-20T05:58:47.153Z,21.29
2017-04-20T05:59:47.179Z,21.38
2017-04-20T06:00:47.202Z,21.37
2017-04-20T06:01:46.920Z,21.43
2017-04-20T06:02:47.508Z,21.42
2017-04-20T06:03:47.285Z,21.47
2017-04-20T06:04:47.313Z,21.46
2017-04-20T06:05:47.018Z,21.49
2017-04-20T06:06:47.367Z,21.44
2017-04-20T06:07:47.646Z,21.5
2017-04-20T06:08:47.417Z,21.4
2017-04-20T06:09:47.130Z,21.46
2017-04-20T06:10:47.462Z,21.52
2017-04-20T06:11:47.490Z,21.46
2017-04-20T06:12:47.454Z,21.53
2017-04-20T06:13:47.235Z,21.49
2017-04-20T06:14:47.577Z,21.47
2017-04-20T06:15:47.594Z,21.5
2017-04-20T06:16:47.632Z,21.5
2017-04-20T06:17:47.903Z,21.46
2017-04-20T06:18:47.676Z,21.44
2017-04-20T06:19:47.696Z,21.47
2017-04-20T06:20:47.882Z,21.46
2017-04-20T06:21:47.746Z,21.49
2017-04-20T06:22:47.711Z,21.52
2017-04-20T06:23:47.812Z,21.46
2017-04-20T06:24:47.832Z,21.59
2017-04-20T06:25:47.574Z,21.58
2017-04-20T06:26:47.886Z,21.53
2017-04-20T06:27:48.158Z,21.54
2017-04-20T06:28:47.312Z,21.58
2017-04-20T06:29:47.649Z,21.62
2017-04-20T06:30:47.985Z,21.58
2017-04-20T06:31:47.700Z,21.53
2017-04-20T06:32:48.316Z,21.61
2017-04-20T06:33:47.752Z,21.56
2017-04-20T06:34:48.087Z,21.56
2017-04-20T06:35:48.122Z,21.56
2017-04-20T06:36:48.154Z,21.62
2017-04-20T06:37:48.414Z,21.54
2017-04-20T06:38:48.196Z,21.56
2017-04-20T06:39:48.224Z,21.58
2017-04-20T06:40:47.933Z,21.58
2017-04-20T06:41:48.273Z,21.52
2017-04-20T06:42:48.550Z,21.53
2017-04-20T06:43:48.315Z,21.58
2017-04-20T06:44:48.044Z,21.54
2017-04-20T06:45:48.384Z,21.44
2017-04-20T06:46:48.401Z,21.61
2017-04-20T06:47:48.688Z,21.49
2017-04-20T06:48:48.450Z,21.53
2017-04-20T06:49:48.476Z,21.47
2017-04-20T06:50:48.508Z,21.49
2017-04-20T06:51:48.222Z,21.5
2017-04-20T06:52:48.814Z,21.49
2017-04-20T06:53:48.275Z,21.5
2017-04-20T06:54:48.615Z,21.5
2017-04-20T06:55:48.640Z,21.43
2017-04-20T06:56:48.045Z,21.44
2017-04-20T06:57:48.947Z,21.49
2017-04-20T06:58:48.090Z,21.44
2017-04-20T06:59:48.115Z,21.37
2017-04-20T07:00:48.460Z,21.44
2017-04-20T07:01:48.480Z,21.38
2017-04-20T07:02:48.190Z,21.38
2017-04-20T07:03:48.847Z,21.4
2017-04-20T07:04:48.876Z,21.38
2017-04-20T07:05:48.896Z,21.42
2017-04-20T07:06:48.929Z,21.34
2017-04-20T07:07:48.953Z,21.32
2017-04-20T07:08:48.362Z,21.4
2017-04-20T07:09:49.007Z,21.34
2017-04-20T07:10:48.708Z,21.38
2017-04-20T07:11:49.055Z,21.38
2017-04-20T07:12:49.085Z,21.38
2017-04-20T07:13:48.802Z,21.31
2017-04-20T07:14:49.147Z,21.29
2017-04-20T07:15:48.852Z,21.31
2017-04-20T07:16:49.184Z,21.28
2017-04-20T07:17:49.213Z,21.34
2017-04-20T07:18:49.241Z,21.29
2017-04-20T07:19:48.947Z,21.22
2017-04-20T07:20:48.979Z,21.28
2017-04-20T07:21:49.012Z,21.24
2017-04-20T07:22:49.344Z,21.28
2017-04-20T07:23:49.369Z,21.31
2017-04-20T07:24:49.398Z,21.32
2017-04-20T07:25:49.107Z,21.27
2017-04-20T07:26:49.745Z,21.28
2017-04-20T07:27:49.468Z,21.21
2017-04-20T07:28:49.213Z,21.24
2017-04-20T07:29:49.526Z,21.28
2017-04-20T07:30:49.238Z,21.31
2017-04-20T07:31:49.566Z,21.29
2017-04-20T07:32:49.608Z,21.32
2017-04-20T07:33:49.629Z,21.19
2017-04-20T07:34:49.657Z,21.21
2017-04-20T07:35:49.698Z,21.22
2017-04-20T07:36:49.403Z,21.16
2017-04-20T07:37:49.732Z,21.12
2017-04-20T07:38:49.757Z,21.07
2017-04-20T07:39:49.790Z,20.97
2017-04-20T07:40:49.190Z,20.95
2017-04-20T07:41:49.526Z,20.97
2017-04-20T07:42:49.865Z,20.88
2017-04-20T07:43:49.889Z,20.88
2017-04-20T07:44:49.918Z,20.8
2017-04-20T07:45:49.945Z,20.79
2017-04-20T07:46:49.967Z,20.7
2017-04-20T07:47:49.995Z,20.73
2017-04-20T07:48:50.276Z,20.62
2017-04-20T07:49:49.428Z,20.64
2017-04-20T07:50:49.757Z,20.73
2017-04-20T07:51:49.943Z,20.69
2017-04-20T07:52:49.505Z,20.77
2017-04-20T07:53:50.087Z,20.62
2017-04-20T07:54:50.180Z,20.72
2017-04-20T07:55:50.204Z,20.8
2017-04-20T07:56:49.918Z,20.77
2017-04-20T07:57:50.253Z,20.79
2017-04-20T07:58:49.905Z,20.8
2017-04-20T07:59:50.309Z,20.79
2017-04-20T08:00:49.709Z,20.87
2017-04-20T08:01:50.053Z,20.88
2017-04-20T08:02:50.388Z,20.85
2017-04-20T08:03:50.654Z,20.94
2017-04-20T08:04:50.431Z,21.03
2017-04-20T08:05:50.461Z,21.17
2017-04-20T08:06:50.177Z,21.29
2017-04-20T08:07:50.521Z,21.38
2017-04-20T08:08:50.480Z,21.5
2017-04-20T08:09:50.248Z,21.44
2017-04-20T08:10:50.284Z,21.54
2017-04-20T08:11:50.306Z,21.49
2017-04-20T08:12:50.649Z,21.46
2017-04-20T08:13:50.603Z,21.4
2017-04-20T08:14:50.378Z,21.32
2017-04-20T08:15:50.731Z,21.28
2017-04-20T08:16:50.753Z,21.34
2017-04-20T08:17:50.778Z,21.32
2017-04-20T08:18:51.053Z,21.27
2017-04-20T08:19:50.834Z,21.24
2017-04-20T08:20:50.540Z,21.27
2017-04-20T08:21:50.888Z,21.22
2017-04-20T08:22:50.590Z,21.28
2017-04-20T08:23:51.174Z,21.25
2017-04-20T08:24:50.643Z,21.25
2017-04-20T08:25:50.986Z,21.25
2017-04-20T08:26:50.704Z,21.13
2017-04-20T08:27:51.041Z,21.25
2017-04-20T08:28:51.318Z,21.24
2017-04-20T08:29:50.778Z,21.29
2017-04-20T08:30:51.119Z,21.21
2017-04-20T08:31:51.136Z,21.24
2017-04-20T08:32:50.856Z,21.29
2017-04-20T08:33:51.445Z,21.31
2017-04-20T08:34:50.906Z,21.22
2017-04-20T08:35:50.935Z,21.19
2017-04-20T08:36:50.956Z,21.29
2017-04-20T08:37:50.980Z,21.19
2017-04-20T08:38:51.580Z,21.17
2017-04-20T08:39:51.058Z,21.13
2017-04-20T08:40:51.062Z,21.16
2017-04-20T08:41:51.412Z,21.21
2017-04-20T08:42:51.437Z,21.13
2017-04-20T08:43:51.703Z,21.25
2017-04-20T08:44:51.491Z,21.24
2017-04-20T08:45:51.511Z,21.31
2017-04-20T08:46:51.239Z,21.34
2017-04-20T08:47:51.555Z,21.19
2017-04-20T08:48:51.515Z,21.34
2017-04-20T08:49:51.608Z,21.24
2017-04-20T08:50:51.645Z,21.31
2017-04-20T08:51:51.669Z,21.31
2017-04-20T08:52:51.692Z,21.22
2017-04-20T08:53:51.979Z,21.28
2017-04-20T08:54:51.745Z,21.27
2017-04-20T08:55:51.450Z,21.31
2017-04-20T08:56:51.487Z,21.34
2017-04-20T08:57:51.822Z,21.27
2017-04-20T08:58:51.837Z,21.28
2017-04-20T08:59:51.640Z,21.28
2017-04-20T09:00:51.909Z,21.25
2017-04-20T09:01:51.606Z,21.24
2017-04-20T09:02:51.635Z,21.28
2017-04-20T09:03:51.663Z,21.14
2017-04-20T09:04:51.702Z,21.28
2017-04-20T09:05:51.721Z,21.28
2017-04-20T09:06:51.750Z,21.24
2017-04-20T09:07:52.083Z,21.24
2017-04-20T09:08:52.106Z,21.28
2017-04-20T09:09:52.123Z,21.29
2017-04-20T09:10:51.843Z,21.27
2017-04-20T09:11:51.878Z,21.31
2017-04-20T09:12:52.217Z,21.19
2017-04-20T09:13:51.923Z,21.31
2017-04-20T09:14:52.258Z,21.28
2017-04-20T09:15:52.291Z,21.31
2017-04-20T09:16:52.354Z,21.17
2017-04-20T09:17:52.341Z,21.22
2017-04-20T09:18:52.367Z,21.19
2017-04-20T09:19:51.767Z,21.24
2017-04-20T09:20:52.420Z,21.34
2017-04-20T09:21:52.456Z,21.35
2017-04-20T09:22:52.472Z,21.24
2017-04-20T09:23:52.186Z,21.22
2017-04-20T09:24:52.522Z,21.27
2017-04-20T09:25:52.539Z,21.25
2017-04-20T09:26:52.569Z,21.24
2017-04-20T09:27:52.602Z,21.19
2017-04-20T09:28:52.622Z,21.22
2017-04-20T09:29:52.344Z,21.35
2017-04-20T09:30:52.353Z,21.22
2017-04-20T09:31:52.395Z,21.31
2017-04-20T09:32:52.413Z,21.31
2017-04-20T09:33:52.764Z,21.22
2017-04-20T09:34:52.785Z,21.31
2017-04-20T09:35:52.186Z,21.27
2017-04-20T09:36:52.537Z,21.35
2017-04-20T09:37:52.545Z,21.37
2017-04-20T09:38:52.573Z,21.37
2017-04-20T09:39:53.161Z,21.32
2017-04-20T09:40:52.932Z,21.34
2017-04-20T09:41:52.967Z,21.35
2017-04-20T09:42:52.684Z,21.34
2017-04-20T09:43:53.022Z,21.34
2017-04-20T09:44:53.289Z,21.4
2017-04-20T09:45:52.763Z,21.38
2017-04-20T09:46:52.782Z,21.43
2017-04-20T09:47:52.815Z,21.43
2017-04-20T09:48:53.149Z,21.44
2017-04-20T09:49:52.801Z,21.5
2017-04-20T09:50:53.206Z,21.5
2017-04-20T09:51:53.227Z,21.5
2017-04-20T09:52:53.255Z,21.47
2017-04-20T09:53:53.285Z,21.47
2017-04-20T09:54:53.560Z,21.5
2017-04-20T09:55:53.327Z,21.54
2017-04-20T09:56:53.066Z,21.61
2017-04-20T09:57:53.379Z,21.56
2017-04-20T09:58:53.411Z,21.62
2017-04-20T09:59:53.697Z,21.62
2017-04-20T10:00:53.158Z,21.59
2017-04-20T10:01:53.486Z,21.65
2017-04-20T10:02:53.211Z,21.58
2017-04-20T10:03:53.539Z,21.59
2017-04-20T10:04:53.816Z,21.58
2017-04-20T10:05:53.593Z,21.65
2017-04-20T10:06:53.618Z,21.65
2017-04-20T10:07:53.645Z,21.56
2017-04-20T10:08:53.358Z,21.69
2017-04-20T10:09:53.640Z,21.68
2017-04-20T10:10:53.731Z,21.67
2017-04-20T10:11:53.758Z,21.71
2017-04-20T10:12:53.774Z,21.56
2017-04-20T10:13:53.805Z,21.54
2017-04-20T10:14:54.080Z,21.69
2017-04-20T10:15:53.540Z,21.68
2017-04-20T10:16:53.888Z,21.67
2017-04-20T10:17:53.917Z,21.77
2017-04-20T10:18:53.629Z,21.74
2017-04-20T10:19:54.230Z,21.68
2017-04-20T10:20:53.987Z,21.75
2017-04-20T10:21:54.020Z,21.79
2017-04-20T10:22:53.735Z,21.69
2017-04-20T10:23:54.061Z,21.8
2017-04-20T10:24:53.722Z,21.75
2017-04-20T10:25:54.128Z,21.72
2017-04-20T10:26:53.832Z,21.75
2017-04-20T10:27:53.860Z,21.75
2017-04-20T10:28:54.217Z,21.75
2017-04-20T10:29:54.472Z,21.83
2017-04-20T10:30:53.940Z,21.84
2017-04-20T10:31:53.968Z,21.82
2017-04-20T10:32:54.309Z,21.82
2017-04-20T10:33:54.334Z,21.77
2017-04-20T10:34:53.983Z,21.86
2017-04-20T10:35:54.374Z,21.8
2017-04-20T10:36:54.404Z,21.92
2017-04-20T10:37:54.439Z,21.91
2017-04-20T10:38:54.456Z,21.91
2017-04-20T10:39:54.541Z,21.9
2017-04-20T10:40:54.203Z,21.72
2017-04-20T10:41:54.231Z,21.88
2017-04-20T10:42:54.565Z,21.8
2017-04-20T10:43:54.596Z,21.9
2017-04-20T10:44:54.873Z,21.83
2017-04-20T10:45:54.646Z,21.98
2017-04-20T10:46:54.363Z,21.91
2017-04-20T10:47:54.387Z,21.92
2017-04-20T10:48:54.412Z,21.94
2017-04-20T10:49:55.000Z,21.92
2017-04-20T10:50:54.778Z,21.88
2017-04-20T10:51:54.490Z,22.02
2017-04-20T10:52:54.519Z,21.99
2017-04-20T10:53:54.546Z,22.03
2017-04-20T10:54:54.853Z,22.1
2017-04-20T10:55:54.606Z,22
2017-04-20T10:56:54.933Z,22.07
2017-04-20T10:57:54.658Z,22.05
2017-04-20T10:58:54.996Z,22.06
2017-04-20T10:59:55.284Z,22.02
2017-04-20T11:00:54.732Z,22.07
2017-04-20T11:01:55.071Z,22.05
2017-04-20T11:02:55.096Z,22.09
2017-04-20T11:03:55.126Z,22.09
2017-04-20T11:04:55.399Z,22.15
2017-04-20T11:05:55.173Z,22.1
2017-04-20T11:06:55.202Z,22.14
2017-04-20T11:07:54.935Z,22.15
2017-04-20T11:08:55.254Z,22.07
2017-04-20T11:09:55.540Z,22.1
2017-04-20T11:10:55.321Z,22.14
2017-04-20T11:11:55.025Z,22.18
2017-04-20T11:12:54.736Z,22.18
2017-04-20T11:13:55.392Z,22.21
2017-04-20T11:14:55.675Z,22.18
2017-04-20T11:15:55.140Z,22.27
2017-04-20T11:16:55.162Z,22.28
2017-04-20T11:17:55.182Z,22.22
2017-04-20T11:18:55.533Z,22.27
2017-04-20T11:19:55.496Z,22.28
2017-04-20T11:20:55.579Z,22.27
2017-04-20T11:21:55.304Z,22.27
2017-04-20T11:22:55.637Z,22.33
2017-04-20T11:23:55.347Z,22.22
2017-04-20T11:24:55.937Z,22.3
2017-04-20T11:25:55.408Z,22.25
2017-04-20T11:26:55.429Z,22.21
2017-04-20T11:27:55.770Z,22.24
2017-04-20T11:28:55.798Z,22.31
2017-04-20T11:29:55.765Z,22.22
2017-04-20T11:30:55.980Z,22.39
2017-04-20T11:31:55.584Z,22.37
2017-04-20T11:32:55.910Z,22.47
2017-04-20T11:33:55.921Z,22.49
2017-04-20T11:34:56.202Z,22.62
2017-04-20T11:35:55.672Z,22.6
2017-04-20T11:36:56.005Z,22.65
2017-04-20T11:37:55.727Z,22.79
2017-04-20T11:38:55.749Z,22.86
2017-04-20T11:39:55.780Z,22.94
2017-04-20T11:40:55.806Z,23.01
2017-04-20T11:41:55.832Z,23.19
2017-04-20T11:42:55.856Z,23.39
2017-04-20T11:43:56.194Z,23.46
2017-04-20T11:44:56.227Z,23.69
2017-04-20T11:45:56.256Z,23.78
2017-04-20T11:46:55.965Z,23.97
2017-04-20T11:47:56.412Z,24.2
2017-04-20T11:48:56.022Z,24.35
2017-04-20T11:49:56.062Z,24.52
2017-04-20T11:50:56.404Z,24.68
2017-04-20T11:51:56.426Z,24.9
2017-04-20T11:52:56.443Z,25.08
2017-04-20T11:53:56.157Z,25.08
2017-04-20T11:54:56.505Z,25.39
2017-04-20T11:55:56.535Z,25.51
2017-04-20T11:56:56.588Z,25.58
2017-04-20T11:57:56.284Z,25.83
2017-04-20T11:58:56.632Z,25.97
2017-04-20T11:59:56.649Z,26.05
2017-04-20T12:00:56.682Z,26.18
2017-04-20T12:01:56.394Z,26.28
2017-04-20T12:02:56.743Z,26.43
2017-04-20T12:03:56.776Z,26.58
2017-04-20T12:04:56.630Z,26.65
2017-04-20T12:05:56.513Z,26.77
2017-04-20T12:06:56.859Z,26.77
2017-04-20T12:07:56.893Z,26.95
2017-04-20T12:08:56.918Z,27.12
2017-04-20T12:09:56.941Z,27.12
2017-04-20T12:10:56.977Z,27.17
2017-04-20T12:11:56.691Z,27.25
2017-04-20T12:12:56.722Z,27.36
2017-04-20T12:13:57.076Z,27.41
2017-04-20T12:14:56.473Z,27.57
2017-04-20T12:15:57.388Z,27.59
2017-04-20T12:16:57.165Z,27.66
2017-04-20T12:17:57.191Z,27.81
2017-04-20T12:18:56.920Z,27.85
2017-04-20T12:19:57.256Z,27.82
2017-04-20T12:20:57.534Z,27.88
2017-04-20T12:21:56.995Z,27.99
2017-04-20T12:22:56.722Z,28.03
2017-04-20T12:23:57.371Z,28.06
2017-04-20T12:24:57.400Z,28.17
2017-04-20T12:25:57.377Z,28.22
2017-04-20T12:26:57.162Z,28.29
2017-04-20T12:27:57.186Z,28.37
2017-04-20T12:28:57.597Z,28.39
2017-04-20T12:29:57.246Z,28.4
2017-04-20T12:30:57.840Z,28.55
2017-04-20T12:31:57.620Z,28.51
2017-04-20T12:32:57.342Z,28.62
2017-04-20T12:33:57.375Z,28.61
2017-04-20T12:34:57.400Z,28.67
2017-04-20T12:35:58.004Z,28.77
2017-04-20T12:36:57.469Z,28.76
2017-04-20T12:37:57.814Z,28.85
2017-04-20T12:38:57.531Z,28.86
2017-04-20T12:39:57.872Z,28.86
2017-04-20T12:40:58.156Z,28.88
2017-04-20T12:41:57.937Z,28.95
2017-04-20T12:42:57.657Z,29.06
2017-04-20T12:43:57.368Z,29.02
2017-04-20T12:44:58.036Z,29.05
2017-04-20T12:45:58.316Z,29.08
2017-04-20T12:46:58.091Z,29.16
2017-04-20T12:47:58.134Z,29.15
2017-04-20T12:48:58.166Z,29.18
2017-04-20T12:49:58.191Z,29.21
2017-04-20T12:50:58.479Z,29.27
2017-04-20T12:51:58.256Z,29.3
2017-04-20T12:52:57.973Z,29.23
2017-04-20T12:53:58.089Z,29.28
2017-04-20T12:54:58.349Z,29.37
2017-04-20T12:55:58.644Z,29.41